createdAt,value
2024-03-28T00:08:56.318Z,974.7
2024-03-28T00:18:56.303Z,974.8
2024-03-28T00:28:56.264Z,974.6
2024-03-28T00:38:56.233Z,974.5
2024-03-28T00:48:56.202Z,974.5
2024-03-28T00:58:56.155Z,974.3
2024-03-28T01:08:56.138Z,974.3
2024-03-28T01:18:56.113Z,974.3
2024-03-28T01:28:56.072Z,974
2024-03-28T01:38:56.034Z,973.8
2024-03-28T01:48:55.987Z,973.7
2024-03-28T01:58:55.949Z,973.8
2024-03-28T02:08:55.918Z,973.9
2024-03-28T02:18:55.902Z,973.8
2024-03-28T02:28:55.847Z,973.7
2024-03-28T02:38:55.838Z,973.6
2024-03-28T02:48:55.792Z,973.6
2024-03-28T02:58:55.742Z,973.6
2024-03-28T03:08:55.728Z,973.5
2024-03-28T03:18:55.685Z,973.5
2024-03-28T03:28:55.655Z,973.5
2024-03-28T03:38:55.616Z,973.3
2024-03-28T03:48:55.589Z,973
2024-03-28T03:58:55.537Z,972.7
2024-03-28T04:08:55.523Z,972.6
2024-03-28T04:18:55.488Z,972.4
2024-03-28T04:28:55.453Z,972.3
2024-03-28T04:38:55.431Z,972.2
2024-03-28T04:48:55.383Z,972.1
2024-03-28T04:58:55.346Z,971.9
2024-03-28T05:08:55.321Z,971.8
2024-03-28T05:18:55.291Z,971.7
2024-03-28T05:28:55.249Z,971.4
2024-03-28T05:38:55.221Z,971.3
2024-03-28T05:48:55.186Z,971.4
2024-03-28T05:58:55.127Z,971.6
2024-03-28T06:08:55.105Z,971.6
2024-03-28T06:18:55.086Z,971.6
2024-03-28T06:28:55.054Z,971.7
2024-03-28T06:38:55.024Z,971.6
2024-03-28T06:48:54.971Z,971.7
2024-03-28T06:58:54.940Z,971.7
2024-03-28T07:08:54.910Z,971.8
2024-03-28T07:18:54.879Z,972
2024-03-28T07:28:54.828Z,972.1
2024-03-28T07:38:54.808Z,972.1
2024-03-28T07:48:54.776Z,972.1
2024-03-28T07:58:54.735Z,972.2
2024-03-28T08:08:55.081Z,972.2
2024-03-28T08:18:54.958Z,972.1
2024-03-28T08:28:54.655Z,972.3
2024-03-28T08:38:54.612Z,972.5
2024-03-28T08:48:54.572Z,972.6
2024-03-28T08:58:54.565Z,972.7
2024-03-28T09:08:54.500Z,972.6
2024-03-28T09:18:54.455Z,972.5
2024-03-28T09:28:54.432Z,972.4
2024-03-28T09:38:54.399Z,972.7
2024-03-28T09:48:54.372Z,973
2024-03-28T09:58:54.339Z,973.3
2024-03-28T10:08:54.328Z,973.4
2024-03-28T10:18:54.268Z,973.7
2024-03-28T10:28:54.233Z,973.9
2024-03-28T10:38:54.204Z,974.1
2024-03-28T10:48:54.503Z,974.5
2024-03-28T10:58:54.438Z,974.7
2024-03-28T11:08:54.099Z,974.6
2024-03-28T11:18:54.042Z,974.6
2024-03-28T11:28:54.007Z,974.8
2024-03-28T11:38:53.983Z,975.1
2024-03-28T11:48:53.952Z,975.1
2024-03-28T11:58:53.921Z,975.3
2024-03-28T12:08:53.887Z,975.3
2024-03-28T12:18:53.855Z,975.4
2024-03-28T12:28:53.799Z,975.4
2024-03-28T12:38:53.772Z,975.5
2024-03-28T12:48:53.727Z,975.8
2024-03-28T12:58:53.709Z,976
2024-03-28T13:08:53.675Z,976.3
2024-03-28T13:18:53.654Z,976.5
2024-03-28T13:28:53.594Z,977
2024-03-28T13:38:53.549Z,977.1
2024-03-28T13:48:53.523Z,977.2
2024-03-28T13:58:53.494Z,977.3
2024-03-28T14:08:53.450Z,977.3
2024-03-28T14:18:53.408Z,977.4
2024-03-28T14:28:53.367Z,977.4
2024-03-28T14:38:53.344Z,977.5
2024-03-28T14:48:53.303Z,977.5
2024-03-28T14:58:53.264Z,977.5
2024-03-28T15:08:53.222Z,977.6
2024-03-28T15:18:53.202Z,977.7
2024-03-28T15:28:53.147Z,978
2024-03-28T15:38:53.153Z,978.3
2024-03-28T15:48:53.093Z,978.5
2024-03-28T15:58:53.056Z,978.6
2024-03-28T16:08:53.023Z,978.7
2024-03-28T16:18:52.971Z,978.7
2024-03-28T16:28:52.943Z,978.7
2024-03-28T16:38:52.905Z,978.8
2024-03-28T16:48:52.876Z,978.9
2024-03-28T16:58:52.828Z,978.9
2024-03-28T17:08:52.805Z,978.9
2024-03-28T17:18:52.769Z,978.9
2024-03-28T17:28:52.709Z,978.9
2024-03-28T17:38:52.701Z,978.9
2024-03-28T17:48:52.665Z,978.9
2024-03-28T17:58:52.615Z,979.1
2024-03-28T18:08:52.582Z,979.2
2024-03-28T18:18:52.545Z,979.4
2024-03-28T18:28:52.518Z,979.5
2024-03-28T18:38:52.465Z,979.6
2024-03-28T18:48:52.454Z,979.7
2024-03-28T18:58:52.406Z,979.8
2024-03-28T19:08:52.407Z,980.1
2024-03-28T19:18:52.328Z,980.3
2024-03-28T19:28:52.301Z,980.4
2024-03-28T19:38:52.270Z,980.6
2024-03-28T19:48:52.211Z,980.6
2024-03-28T19:58:52.211Z,980.7
2024-03-28T20:08:52.169Z,980.7
2024-03-28T20:18:52.132Z,980.7
2024-03-28T20:28:52.093Z,980.8
2024-03-28T20:38:52.059Z,981.1
2024-03-28T20:48:52.017Z,981.2
2024-03-28T20:58:51.984Z,981.3
2024-03-28T21:08:51.948Z,981.5
2024-03-28T21:18:51.922Z,981.5
2024-03-28T21:28:51.878Z,981.7
2024-03-28T21:38:51.838Z,981.9
2024-03-28T21:48:51.815Z,981.9
2024-03-28T21:58:51.773Z,981.9
2024-03-28T22:08:51.741Z,982
2024-03-28T22:18:51.705Z,982.1
2024-03-28T22:28:51.674Z,982.2
2024-03-28T22:38:51.759Z,982.2
2024-03-28T22:48:51.928Z,982.2
2024-03-28T22:58:51.760Z,982.1
2024-03-28T23:08:51.848Z,982.2
2024-03-28T23:18:51.834Z,982.1
2024-03-28T23:28:51.765Z,982.1
2024-03-28T23:38:51.664Z,982.1
2024-03-28T23:48:51.722Z,982.1
2024-03-28T23:58:51.357Z,982.1
